TimeHST,TemperatureF,Dew PointF,Humidity,Sea Level PressureIn,VisibilityMPH,Wind Direction,Wind SpeedMPH,Gust SpeedMPH,PrecipitationIn,Events,Conditions,WindDirDegrees,DateUTC
12:58 AM,69.6,66.6,90,29.96,10.0,SSE,2.3,-,N/A,,Partly Cloudy,160,2013-11-21 10:58:00
1:58 AM,69.6,66.9,91,29.95,10.0,SW,2.3,-,N/A,,Mostly Cloudy,230,2013-11-21 11:58:00
2:58 AM,71.2,67.8,89,29.93,10.0,Variable,1.2,-,N/A,,Mostly Cloudy,0,2013-11-21 12:58:00
3:58 AM,69.8,66.7,90,29.94,10.0,North,3.5,-,N/A,,Partly Cloudy,350,2013-11-21 13:58:00
4:58 AM,70.7,67.6,90,29.94,10.0,North,4.6,-,N/A,,Overcast,350,2013-11-21 14:58:00
5:58 AM,70.3,67.6,91,29.96,10.0,North,5.8,-,N/A,,Clear,350,2013-11-21 15:58:00
6:58 AM,70.3,67.6,91,29.99,10.0,Variable,2.3,-,N/A,,Partly Cloudy,0,2013-11-21 16:58:00
7:58 AM,70.0,67.6,92,30.01,10.0,NW,2.3,-,N/A,,Scattered Clouds,310,2013-11-21 17:58:00
8:40 AM,71.6,69.8,94,30.05,10.0,North,4.6,-,N/A,,Light Drizzle,350,2013-11-21 18:40:00
8:58 AM,72.7,69.3,89,30.03,10.0,Variable,2.3,-,0.00,,Light Drizzle,0,2013-11-21 18:58:00
9:00 AM,73.4,69.8,88,30.05,10.0,East,4.6,-,N/A,,Partly Cloudy,100,2013-11-21 19:00:00
9:51 AM,73.4,69.8,88,30.07,10.0,ESE,2.3,-,N/A,,Light Drizzle,120,2013-11-21 19:51:00
9:58 AM,73.6,69.3,86,30.04,10.0,ESE,3.5,-,0.00,Rain,Light Rain,120,2013-11-21 19:58:00
10:31 AM,73.4,69.8,88,30.05,10.0,ESE,3.5,-,N/A,,Clear,110,2013-11-21 20:31:00
10:58 AM,75.2,69.3,82,29.99,10.0,ENE,8.1,-,0.01,,Clear,70,2013-11-21 20:58:00
11:34 AM,77.0,68.0,74,30.01,10.0,SSE,4.6,-,N/A,,Light Drizzle,150,2013-11-21 21:34:00
11:35 AM,77.0,68.0,74,30.01,10.0,SSE,3.5,-,N/A,,Scattered Clouds,160,2013-11-21 21:35:00
11:58 AM,76.3,67.3,74,29.99,10.0,SSW,2.3,-,0.00,,Partly Cloudy,210,2013-11-21 21:58:00
12:58 PM,79.3,66.4,64,29.95,10.0,NW,5.8,-,N/A,,Clear,310,2013-11-21 22:58:00
1:58 PM,82.2,63.0,52,29.92,10.0,Variable,3.5,-,N/A,,Scattered Clouds,0,2013-11-21 23:58:00
2:58 PM,81.5,64.6,56,29.91,10.0,Variable,2.3,-,N/A,,Scattered Clouds,0,2013-11-22 00:58:00
3:58 PM,79.7,68.9,69,29.91,10.0,NNE,5.8,-,N/A,,Overcast,20,2013-11-22 01:58:00
4:08 PM,80.6,68.0,65,29.95,10.0,NNE,6.9,-,N/A,Thunderstorm,Overcast,20,2013-11-22 02:08:00
4:13 PM,80.6,69.8,70,29.95,10.0,NE,6.9,-,N/A,Thunderstorm,Overcast,40,2013-11-22 02:13:00
4:18 PM,80.6,69.8,70,29.95,10.0,North,6.9,-,N/A,Thunderstorm,Overcast,10,2013-11-22 02:18:00
4:58 PM,79.5,67.1,66,29.94,10.0,ESE,4.6,-,N/A,,Mostly Cloudy,120,2013-11-22 02:58:00
5:08 PM,78.8,66.2,65,29.97,10.0,SSE,5.8,-,N/A,,Scattered Clouds,150,2013-11-22 03:08:00
5:58 PM,76.6,66.6,71,29.96,10.0,North,4.6,-,N/A,,Scattered Clouds,10,2013-11-22 03:58:00
6:58 PM,73.9,68.5,83,29.98,10.0,North,4.6,-,N/A,,Clear,360,2013-11-22 04:58:00
7:58 PM,71.6,67.3,86,29.99,10.0,West,3.5,-,N/A,,Clear,280,2013-11-22 05:58:00
8:58 PM,69.8,65.5,86,30.01,10.0,NNW,2.3,-,N/A,,Clear,330,2013-11-22 06:58:00
9:58 PM,67.3,63.7,88,30.02,10.0,NW,4.6,-,N/A,,Clear,320,2013-11-22 07:58:00
10:58 PM,69.3,65.7,88,30.01,10.0,Variable,2.3,-,N/A,,Clear,0,2013-11-22 08:58:00
11:58 PM,65.7,62.8,90,30.01,10.0,NW,5.8,-,N/A,,Clear,320,2013-11-22 09:58:00